createdAt,value
2023-09-13T00:01:05.102Z,99948.81
2023-09-13T00:06:09.431Z,99955.50
2023-09-13T00:11:12.253Z,99964.53
2023-09-13T00:16:15.177Z,99967.25
2023-09-13T00:21:19.581Z,99967.25
2023-09-13T00:26:22.432Z,99977.75
2023-09-13T00:31:27.568Z,99996.38
2023-09-13T00:36:32.519Z,99999.44
2023-09-13T00:41:35.370Z,99992.66
2023-09-13T00:46:38.659Z,99977.06
2023-09-13T00:51:43.620Z,99979.38
2023-09-13T00:56:47.513Z,99986.91
2023-09-13T01:01:50.410Z,99993.69
2023-09-13T01:06:55.541Z,100008.66
2023-09-13T01:11:58.625Z,100011.16
2023-09-13T01:17:08.050Z,100016.25
2023-09-13T01:22:33.483Z,100023.44
2023-09-13T01:27:54.432Z,100032.34
2023-09-13T01:32:59.860Z,100038.34
2023-09-13T01:38:02.866Z,100025.19
2023-09-13T01:43:06.956Z,100027.91
2023-09-13T01:48:12.745Z,100025.00
2023-09-13T01:53:15.646Z,100016.44
2023-09-13T01:58:18.556Z,100017.56
2023-09-13T02:03:22.794Z,100018.25
2023-09-13T02:08:25.656Z,100020.81
2023-09-13T02:13:28.491Z,100019.81
2023-09-13T02:18:32.945Z,100029.63
2023-09-13T02:23:35.764Z,100039.44
2023-09-13T02:28:38.619Z,100044.75
2023-09-13T02:33:43.121Z,100069.50
2023-09-13T02:38:46.230Z,100076.56
2023-09-13T02:43:49.290Z,100074.81
2023-09-13T02:48:53.486Z,100072.44
2023-09-13T02:53:57.008Z,100085.50
2023-09-13T02:58:59.828Z,100085.66
2023-09-13T03:04:04.587Z,100081.06
2023-09-13T03:09:08.065Z,100078.88
2023-09-13T03:14:10.979Z,100053.38
2023-09-13T03:19:15.725Z,100052.50
2023-09-13T03:24:18.680Z,100055.94
2023-09-13T03:29:21.993Z,100050.72
2023-09-13T03:34:26.461Z,100032.09
2023-09-13T03:39:29.867Z,100027.97
2023-09-13T03:44:33.271Z,100028.16
2023-09-13T03:49:37.499Z,100024.06
2023-09-13T03:54:40.653Z,100033.41
2023-09-13T03:59:43.625Z,100030.41
2023-09-13T04:04:48.311Z,100034.97
2023-09-13T04:09:51.759Z,100037.16
2023-09-13T04:14:54.753Z,100033.13
2023-09-13T04:19:58.946Z,100025.09
2023-09-13T04:25:01.991Z,100029.34
2023-09-13T04:30:05.703Z,100030.72
2023-09-13T04:35:13.122Z,100047.03
2023-09-13T04:40:16.754Z,100032.09
2023-09-13T04:45:20.844Z,100034.16
2023-09-13T04:50:25.074Z,100040.78
2023-09-13T04:55:30.604Z,100047.19
2023-09-13T05:00:33.554Z,100061.47
2023-09-13T05:05:37.989Z,100067.22
2023-09-13T05:10:41.088Z,100053.16
2023-09-13T05:15:45.712Z,100070.75
2023-09-13T05:20:50.183Z,100063.28
2023-09-13T05:25:56.680Z,100057.34
2023-09-13T05:30:59.538Z,100062.59
2023-09-13T05:36:05.250Z,100068.84
2023-09-13T05:41:08.422Z,100075.09
2023-09-13T05:46:12.197Z,100078.78
2023-09-13T05:51:16.489Z,100097.72
2023-09-13T05:56:19.305Z,100100.94
2023-09-13T06:01:23.896Z,100116.44
2023-09-13T06:06:28.969Z,100127.34
2023-09-13T06:11:32.302Z,100128.75
2023-09-13T06:16:35.310Z,100137.47
2023-09-13T06:21:39.620Z,100134.56
2023-09-13T06:26:42.644Z,100140.00
2023-09-13T06:31:56.916Z,100140.47
2023-09-13T06:37:08.162Z,100149.59
2023-09-13T06:42:27.081Z,100147.41
2023-09-13T06:47:32.912Z,100137.94
2023-09-13T06:52:52.660Z,100144.38
2023-09-13T06:58:03.320Z,100160.44
2023-09-13T07:03:09.759Z,100152.44
2023-09-13T07:08:15.674Z,100165.38
2023-09-13T07:13:18.472Z,100168.91
2023-09-13T07:18:21.411Z,100186.03
2023-09-13T07:23:25.662Z,100181.25
2023-09-13T07:28:28.773Z,100195.94
2023-09-13T07:33:31.603Z,100186.97
2023-09-13T07:38:36.222Z,100211.31
2023-09-13T07:43:39.204Z,100206.75
2023-09-13T07:48:42.084Z,100213.66
2023-09-13T07:53:46.859Z,100225.78
2023-09-13T07:58:50.038Z,100228.47
2023-09-13T08:03:53.140Z,100244.19
2023-09-13T08:09:01.457Z,100238.19
2023-09-13T08:14:07.166Z,100250.94
2023-09-13T08:19:10.488Z,100238.94
2023-09-13T08:24:14.721Z,100252.00
2023-09-13T08:29:17.725Z,100256.81
2023-09-13T08:34:20.663Z,100258.25
2023-09-13T08:39:24.956Z,100270.53
2023-09-13T08:44:29.686Z,100280.72
2023-09-13T08:49:33.971Z,100288.16
2023-09-13T08:54:52.106Z,100286.09
2023-09-13T09:00:00.493Z,100300.38
2023-09-13T09:05:06.462Z,100296.88
2023-09-13T09:10:14.240Z,100298.53
2023-09-13T09:15:20.459Z,100301.81
2023-09-13T09:20:29.005Z,100311.91
2023-09-13T09:25:33.694Z,100317.00
2023-09-13T09:30:36.682Z,100312.44
2023-09-13T09:35:39.510Z,100300.69
2023-09-13T09:40:43.669Z,100300.19
2023-09-13T09:45:46.655Z,100308.34
2023-09-13T09:50:53.119Z,100316.91
2023-09-13T09:55:57.450Z,100312.91
2023-09-13T10:01:03.594Z,100322.81
2023-09-13T10:06:12.335Z,100323.13
2023-09-13T10:11:18.981Z,100338.19
2023-09-13T10:16:23.419Z,100375.41
2023-09-13T10:21:28.465Z,100383.03
2023-09-13T10:26:33.796Z,100388.06
2023-09-13T10:31:43.402Z,100407.84
2023-09-13T10:36:50.685Z,100417.06
2023-09-13T10:42:02.911Z,100435.06
2023-09-13T10:47:06.635Z,100443.75
2023-09-13T10:52:09.795Z,100454.63
2023-09-13T10:57:17.150Z,100460.09
2023-09-13T11:02:22.391Z,100483.44
2023-09-13T11:07:25.594Z,100468.63
2023-09-13T11:12:29.793Z,100491.00
2023-09-13T11:17:40.095Z,100487.72
2023-09-13T11:22:43.112Z,100498.75
2023-09-13T11:27:49.952Z,100510.13
2023-09-13T11:32:54.462Z,100514.06
2023-09-13T11:37:57.442Z,100524.84
2023-09-13T11:43:05.213Z,100542.13
2023-09-13T11:48:09.728Z,100547.56
2023-09-13T11:53:18.023Z,100564.22
2023-09-13T11:58:36.427Z,100578.66
2023-09-13T12:09:00.425Z,100593.38
2023-09-13T12:14:12.044Z,100578.19
2023-09-13T12:19:19.619Z,100573.72
2023-09-13T12:24:25.711Z,100572.72
2023-09-13T12:29:30.091Z,100593.53
2023-09-13T12:34:33.095Z,100593.75
2023-09-13T12:39:36.029Z,100599.56
2023-09-13T12:44:40.811Z,100619.84
2023-09-13T12:49:43.695Z,100636.00
2023-09-13T12:54:47.321Z,100636.25
2023-09-13T12:59:52.984Z,100652.06
2023-09-13T13:04:56.677Z,100663.66
2023-09-13T13:10:05.820Z,100668.28
2023-09-13T13:15:12.506Z,100664.31
2023-09-13T13:20:27.063Z,100675.53
2023-09-13T13:25:30.688Z,100675.00
2023-09-13T13:30:36.951Z,100687.06
2023-09-13T13:35:39.954Z,100684.91
2023-09-13T13:40:42.983Z,100704.16
2023-09-13T13:45:47.294Z,100692.59
2023-09-13T13:50:50.235Z,100691.41
2023-09-13T13:55:53.127Z,100690.66
2023-09-13T14:00:58.116Z,100693.44
2023-09-13T14:06:01.923Z,100694.47
2023-09-13T14:11:04.840Z,100710.19
2023-09-13T14:16:09.092Z,100719.94
2023-09-13T14:21:11.930Z,100712.28
2023-09-13T14:26:14.808Z,100719.94
2023-09-13T14:31:20.225Z,100715.72
2023-09-13T14:36:23.252Z,100721.47
2023-09-13T14:41:26.882Z,100730.69
2023-09-13T14:46:31.276Z,100729.16
2023-09-13T14:51:35.437Z,100740.03
2023-09-13T14:56:38.654Z,100745.41
2023-09-13T15:01:43.058Z,100756.81
2023-09-13T15:06:46.263Z,100753.66
2023-09-13T15:11:49.176Z,100765.63
2023-09-13T15:16:53.450Z,100756.09
2023-09-13T15:21:56.485Z,100760.31
2023-09-13T15:26:59.419Z,100765.41
2023-09-13T15:32:11.647Z,100757.97
2023-09-13T15:37:14.889Z,100758.38
2023-09-13T15:42:17.909Z,100759.44
2023-09-13T15:47:22.067Z,100766.44
2023-09-13T15:52:24.959Z,100767.06
2023-09-13T15:57:27.822Z,100773.28
2023-09-13T16:02:33.622Z,100782.53
2023-09-13T16:07:39.474Z,100777.28
2023-09-13T16:12:43.040Z,100782.66
2023-09-13T16:17:47.367Z,100788.78
2023-09-13T16:22:51.313Z,100790.94
2023-09-13T16:27:54.182Z,100784.44
2023-09-13T16:32:58.693Z,100792.69
2023-09-13T16:38:01.616Z,100797.53
2023-09-13T16:43:04.694Z,100802.06
2023-09-13T16:48:19.527Z,100811.28
2023-09-13T16:53:26.922Z,100818.41
2023-09-13T16:58:29.731Z,100816.53
2023-09-13T17:03:39.220Z,100823.72
2023-09-13T17:08:43.433Z,100825.09
2023-09-13T17:13:47.324Z,100827.72
2023-09-13T17:18:51.600Z,100828.28
2023-09-13T17:23:54.571Z,100837.31
2023-09-13T17:28:57.410Z,100842.72
2023-09-13T17:34:01.748Z,100851.13
2023-09-13T17:39:05.071Z,100857.47
2023-09-13T17:44:08.118Z,100849.03
2023-09-13T17:49:12.662Z,100859.41
2023-09-13T17:54:15.684Z,100860.84
2023-09-13T17:59:18.604Z,100863.63
2023-09-13T18:04:22.893Z,100870.19
2023-09-13T18:09:25.912Z,100874.69
2023-09-13T18:14:29.875Z,100887.53
2023-09-13T18:19:34.271Z,100895.41
2023-09-13T18:24:39.778Z,100892.81
2023-09-13T18:29:46.946Z,100907.66
2023-09-13T18:34:51.208Z,100906.22
2023-09-13T18:39:54.187Z,100917.41
2023-09-13T18:44:57.043Z,100920.69
2023-09-13T18:50:01.673Z,100926.25
2023-09-13T18:55:05.291Z,100939.38
2023-09-13T19:00:10.161Z,100927.84
2023-09-13T19:05:16.015Z,100938.28
2023-09-13T19:10:18.993Z,100947.94
2023-09-13T19:15:21.872Z,100961.75
2023-09-13T19:20:26.092Z,100969.00
2023-09-13T19:25:29.034Z,100973.63
2023-09-13T19:30:35.147Z,100976.16
2023-09-13T19:35:42.574Z,100984.28
2023-09-13T19:40:46.036Z,100980.13
2023-09-13T19:45:50.552Z,100991.94
2023-09-13T19:50:57.227Z,100996.06
2023-09-13T19:56:00.875Z,101003.94
2023-09-13T20:01:08.050Z,101006.72
2023-09-13T20:06:13.978Z,101011.63
2023-09-13T20:11:17.276Z,101020.88
2023-09-13T20:16:20.989Z,101019.63
2023-09-13T20:21:25.658Z,101026.03
2023-09-13T20:26:28.559Z,101036.56
2023-09-13T20:31:32.290Z,101030.31
2023-09-13T20:36:36.657Z,101043.69
2023-09-13T20:41:39.956Z,101040.84
2023-09-13T20:46:42.803Z,101034.19
2023-09-13T20:51:47.286Z,101047.09
2023-09-13T20:56:50.198Z,101042.47
2023-09-13T21:01:53.377Z,101044.31
2023-09-13T21:06:57.813Z,101042.84
2023-09-13T21:12:00.696Z,101047.56
2023-09-13T21:17:03.694Z,101056.03
2023-09-13T21:22:07.935Z,101060.09
2023-09-13T21:27:10.782Z,101063.06
2023-09-13T21:32:13.622Z,101070.44
2023-09-13T21:37:17.914Z,101063.69
2023-09-13T21:42:22.263Z,101071.06
2023-09-13T21:47:25.640Z,101080.16
2023-09-13T21:52:29.959Z,101067.63
2023-09-13T21:57:38.389Z,101064.25
2023-09-13T22:02:41.380Z,101062.16
2023-09-13T22:07:46.147Z,101071.34
2023-09-13T22:12:53.146Z,101079.31
2023-09-13T22:17:56.127Z,101079.94
2023-09-13T22:23:00.433Z,101073.81
2023-09-13T22:28:03.502Z,101078.63
2023-09-13T22:33:06.724Z,101072.97
2023-09-13T22:38:11.206Z,101071.47
2023-09-13T22:43:14.148Z,101074.06
2023-09-13T22:48:17.139Z,101080.34
2023-09-13T22:53:21.734Z,101080.81
2023-09-13T22:58:24.748Z,101080.03
2023-09-13T23:03:43.641Z,101093.88
2023-09-13T23:08:48.988Z,101096.59
2023-09-13T23:13:54.062Z,101097.66
2023-09-13T23:18:57.191Z,101100.72
2023-09-13T23:24:01.695Z,101100.94
2023-09-13T23:29:06.647Z,101100.25
2023-09-13T23:34:11.027Z,101104.72
2023-09-13T23:39:16.588Z,101100.66
2023-09-13T23:44:19.449Z,101098.22
2023-09-13T23:49:22.316Z,101086.53
2023-09-13T23:54:26.576Z,101093.19
2023-09-13T23:59:31.943Z,101089.53
